createdAt,value
2022-09-14T00:01:23.678Z,19.50
2022-09-14T00:03:45.872Z,19.50
2022-09-14T00:06:14.133Z,19.50
2022-09-14T00:08:42.797Z,19.50
2022-09-14T00:11:13.002Z,19.50
2022-09-14T00:13:41.314Z,19.60
2022-09-14T00:16:22.639Z,19.60
2022-09-14T00:18:53.640Z,19.60
2022-09-14T00:21:20.650Z,19.60
2022-09-14T00:23:47.474Z,19.60
2022-09-14T00:26:15.867Z,19.60
2022-09-14T00:28:47.082Z,19.50
2022-09-14T00:31:14.234Z,19.50
2022-09-14T00:33:44.795Z,19.50
2022-09-14T00:36:13.327Z,19.50
2022-09-14T00:38:40.280Z,19.50
2022-09-14T00:41:08.450Z,19.50
2022-09-14T00:44:07.820Z,19.40
2022-09-14T00:46:38.612Z,19.40
2022-09-14T00:49:23.055Z,19.40
2022-09-14T00:51:59.155Z,19.40
2022-09-14T00:54:26.100Z,19.40
2022-09-14T00:56:52.915Z,19.40
2022-09-14T00:59:24.432Z,19.50
2022-09-14T01:01:51.350Z,19.40
2022-09-14T01:04:18.208Z,19.50
2022-09-14T01:07:17.082Z,19.50
2022-09-14T01:10:10.186Z,19.50
2022-09-14T01:12:55.967Z,19.50
2022-09-14T01:15:48.069Z,19.50
2022-09-14T01:18:20.333Z,19.50
2022-09-14T01:21:12.610Z,19.50
2022-09-14T01:23:57.947Z,19.50
2022-09-14T01:26:27.675Z,19.50
2022-09-14T01:29:27.022Z,19.50
2022-09-14T01:32:10.293Z,19.60
2022-09-14T01:34:39.285Z,19.50
2022-09-14T01:37:17.504Z,19.50
2022-09-14T01:39:48.086Z,19.50
2022-09-14T01:42:14.993Z,19.40
2022-09-14T01:44:43.450Z,19.40
2022-09-14T01:47:16.813Z,19.30
2022-09-14T01:49:52.489Z,19.30
2022-09-14T01:52:22.312Z,19.20
2022-09-14T01:54:54.489Z,19.20
2022-09-14T01:57:42.948Z,19.20
2022-09-14T02:00:11.931Z,19.20
2022-09-14T02:03:00.470Z,19.20
2022-09-14T02:05:41.804Z,19.10
2022-09-14T02:08:08.959Z,19.10
2022-09-14T02:10:35.828Z,19.10
2022-09-14T02:13:02.623Z,19.10
2022-09-14T02:15:29.509Z,19.10
2022-09-14T02:17:56.392Z,19.10
2022-09-14T02:20:45.294Z,19.10
2022-09-14T02:23:12.096Z,19.10
2022-09-14T02:25:41.154Z,19.10
2022-09-14T02:28:08.307Z,19.10
2022-09-14T02:31:03.025Z,19.10
2022-09-14T02:33:41.676Z,19.10
2022-09-14T02:36:16.080Z,19.10
2022-09-14T02:39:02.044Z,19.00
2022-09-14T02:41:46.259Z,19.00
2022-09-14T02:44:19.380Z,19.00
2022-09-14T02:47:09.674Z,19.00
2022-09-14T02:49:40.248Z,19.10
2022-09-14T02:52:07.023Z,19.00
2022-09-14T02:54:54.269Z,19.00
2022-09-14T02:57:21.066Z,19.00
2022-09-14T02:59:47.972Z,19.00
2022-09-14T03:02:14.998Z,19.00
2022-09-14T03:04:42.261Z,19.00
2022-09-14T03:07:09.091Z,19.00
2022-09-14T03:09:35.890Z,19.00
2022-09-14T03:12:02.893Z,19.00
2022-09-14T03:14:29.704Z,19.00
2022-09-14T03:16:56.547Z,18.90
2022-09-14T03:19:23.304Z,18.90
2022-09-14T03:21:50.160Z,18.90
2022-09-14T03:24:16.948Z,18.90
2022-09-14T03:26:44.085Z,18.90
2022-09-14T03:29:11.014Z,18.80
2022-09-14T03:31:37.990Z,18.80
2022-09-14T03:34:04.830Z,18.80
2022-09-14T03:36:31.729Z,18.80
2022-09-14T03:38:59.566Z,18.80
2022-09-14T03:41:26.571Z,18.80
2022-09-14T03:43:53.428Z,18.80
2022-09-14T03:46:22.041Z,18.80
2022-09-14T03:48:49.094Z,18.80
2022-09-14T03:51:15.918Z,18.80
2022-09-14T03:53:43.014Z,18.80
2022-09-14T03:56:11.662Z,18.80
2022-09-14T03:58:38.629Z,18.70
2022-09-14T04:01:11.374Z,18.70
2022-09-14T04:03:38.179Z,18.70
2022-09-14T04:06:05.534Z,18.70
2022-09-14T04:08:36.321Z,18.70
2022-09-14T04:11:16.341Z,18.70
2022-09-14T04:13:43.198Z,18.60
2022-09-14T04:16:10.235Z,18.60
2022-09-14T04:18:37.193Z,18.60
2022-09-14T04:21:08.890Z,18.50
2022-09-14T04:23:42.299Z,18.50
2022-09-14T04:26:19.195Z,18.40
2022-09-14T04:28:46.146Z,18.40
2022-09-14T04:31:13.230Z,18.40
2022-09-14T04:33:43.016Z,18.30
2022-09-14T04:36:12.344Z,18.20
2022-09-14T04:38:39.477Z,18.20
2022-09-14T04:41:13.822Z,18.20
2022-09-14T04:43:40.728Z,18.10
2022-09-14T04:46:12.414Z,18.10
2022-09-14T04:48:39.422Z,18.10
2022-09-14T04:51:21.022Z,18.10
2022-09-14T04:53:51.992Z,18.10
2022-09-14T04:56:19.831Z,18.20
2022-09-14T04:58:51.364Z,18.20
2022-09-14T05:01:20.552Z,18.10
2022-09-14T05:03:47.690Z,18.10
2022-09-14T05:06:16.743Z,18.10
2022-09-14T05:08:43.774Z,18.00
2022-09-14T05:11:12.958Z,18.00
2022-09-14T05:13:39.820Z,17.90
2022-09-14T05:16:13.366Z,17.90
2022-09-14T05:18:40.300Z,17.80
2022-09-14T05:21:09.238Z,17.80
2022-09-14T05:23:36.251Z,17.80
2022-09-14T05:26:03.321Z,17.80
2022-09-14T06:31:10.521Z,18.20
2022-09-14T06:54:32.830Z,18.50
2022-09-14T06:59:51.001Z,18.70
2022-09-14T07:02:18.210Z,18.80
2022-09-14T07:04:45.366Z,18.80
2022-09-14T07:07:14.892Z,19.00
2022-09-14T07:09:42.985Z,19.10
2022-09-14T07:18:21.914Z,19.60
2022-09-14T07:20:50.099Z,19.30
2022-09-14T07:23:20.456Z,19.70
2022-09-14T07:25:48.393Z,19.70
2022-09-14T07:28:17.529Z,19.90
2022-09-14T07:30:45.739Z,19.90
2022-09-14T07:33:15.017Z,20.10
2022-09-14T07:39:01.102Z,20.20
2022-09-14T07:41:30.585Z,20.20
2022-09-14T07:44:01.432Z,20.40
2022-09-14T07:46:30.032Z,20.80
2022-09-14T07:51:53.825Z,20.70
2022-09-14T07:54:42.009Z,20.80
2022-09-14T07:57:12.445Z,21.00
2022-09-14T07:59:47.619Z,20.90
2022-09-14T08:02:17.118Z,21.30
2022-09-14T08:05:11.917Z,21.60
2022-09-14T08:07:46.120Z,21.80
2022-09-14T08:10:41.337Z,19.50
2022-09-14T08:17:05.739Z,22.20
2022-09-14T08:19:43.266Z,22.40
2022-09-14T08:22:13.510Z,22.20
2022-09-14T08:35:57.723Z,22.20
2022-09-14T08:41:47.687Z,23.50
2022-09-14T08:48:01.335Z,22.10
2022-09-14T08:50:33.029Z,22.10
2022-09-14T08:53:15.075Z,22.00
2022-09-14T08:56:20.028Z,22.00
2022-09-14T08:59:25.683Z,20.50
2022-09-14T09:02:41.744Z,22.00
2022-09-14T09:05:37.530Z,21.90
2022-09-14T09:08:46.826Z,22.00
2022-09-14T09:11:25.949Z,21.20
2022-09-14T09:21:17.531Z,21.60
2022-09-14T09:24:11.785Z,21.30
2022-09-14T09:30:43.021Z,21.10
2022-09-14T09:33:26.954Z,20.50
2022-09-14T09:36:26.289Z,21.20
2022-09-14T09:39:04.942Z,21.10
2022-09-14T09:42:03.511Z,21.30
2022-09-14T09:44:31.039Z,21.20
2022-09-14T09:47:01.751Z,21.20
2022-09-14T09:49:31.741Z,21.20
2022-09-14T09:52:18.358Z,22.10
2022-09-14T09:54:53.461Z,20.80
2022-09-14T09:57:34.302Z,21.70
2022-09-14T10:00:25.610Z,19.80
2022-09-14T10:02:53.242Z,21.30
2022-09-14T10:05:25.739Z,21.80
2022-09-14T10:08:00.407Z,21.70
2022-09-14T11:00:20.108Z,23.00
2022-09-14T11:03:16.385Z,21.30
2022-09-14T11:05:48.218Z,23.40
2022-09-14T11:08:48.840Z,23.40
2022-09-14T11:11:31.461Z,23.60
2022-09-14T11:14:40.332Z,22.10
2022-09-14T11:17:21.820Z,23.60
2022-09-14T11:19:55.734Z,23.60
2022-09-14T11:22:31.031Z,22.80
2022-09-14T11:25:21.732Z,23.70
2022-09-14T11:28:03.132Z,24.00
2022-09-14T11:30:45.897Z,23.60
2022-09-14T11:33:31.184Z,23.60
2022-09-14T11:36:08.887Z,24.00
2022-09-14T11:38:47.591Z,25.70
2022-09-14T11:41:18.121Z,23.50
2022-09-14T11:43:55.691Z,23.60
2022-09-14T11:46:31.774Z,23.50
2022-09-14T11:49:16.710Z,23.90
2022-09-14T11:52:11.563Z,23.30
2022-09-14T11:54:44.657Z,22.30
2022-09-14T11:57:17.925Z,23.30
2022-09-14T11:59:52.170Z,23.30
2022-09-14T12:02:25.618Z,23.30
2022-09-14T12:05:05.281Z,23.30
2022-09-14T12:07:47.298Z,23.30
2022-09-14T12:10:14.521Z,23.20
2022-09-14T12:12:48.893Z,23.10
2022-09-14T12:15:26.272Z,23.10
2022-09-14T12:18:06.450Z,23.00
2022-09-14T12:20:44.124Z,23.00
2022-09-14T12:23:39.458Z,22.90
2022-09-14T12:26:06.479Z,22.80
2022-09-14T12:28:36.538Z,22.70
2022-09-14T12:31:03.598Z,22.60
2022-09-14T12:33:33.398Z,22.50
2022-09-14T12:36:32.645Z,21.50
2022-09-14T12:38:59.720Z,22.40
2022-09-14T12:41:26.566Z,22.40
2022-09-14T12:43:54.453Z,22.40
2022-09-14T12:46:21.533Z,22.30
2022-09-14T12:48:48.765Z,22.20
2022-09-14T12:51:34.906Z,22.20
2022-09-14T12:54:08.423Z,22.10
2022-09-14T12:56:42.414Z,22.00
2022-09-14T12:59:13.924Z,21.90
2022-09-14T13:01:43.757Z,21.90
2022-09-14T13:04:17.331Z,21.90
2022-09-14T13:10:32.712Z,21.80
2022-09-14T13:13:01.303Z,21.70
2022-09-14T13:15:33.083Z,21.60
2022-09-14T13:18:23.367Z,21.50
2022-09-14T13:20:53.002Z,21.40
2022-09-14T13:23:24.497Z,21.30
2022-09-14T13:34:06.054Z,21.20
2022-09-14T13:37:23.836Z,21.20
2022-09-14T13:43:26.703Z,21.10
2022-09-14T13:49:08.616Z,21.20
2022-09-14T13:51:36.756Z,21.30
2022-09-14T13:54:44.022Z,21.40
2022-09-14T14:08:38.929Z,21.70
2022-09-14T14:11:07.141Z,23.20
2022-09-14T14:13:35.746Z,21.70
2022-09-14T14:16:22.792Z,21.80
2022-09-14T14:18:52.417Z,21.60
2022-09-14T14:21:22.650Z,21.50
2022-09-14T14:24:12.233Z,21.60
2022-09-14T14:26:39.957Z,21.40
2022-09-14T14:29:12.515Z,21.50
2022-09-14T14:31:46.959Z,21.20
2022-09-14T14:34:21.946Z,20.60
2022-09-14T14:36:50.361Z,21.30
2022-09-14T14:39:19.395Z,21.40
2022-09-14T14:41:47.324Z,21.30
2022-09-14T14:44:18.706Z,21.30
2022-09-14T14:46:46.386Z,21.40
2022-09-14T14:49:14.790Z,21.30
2022-09-14T14:51:42.839Z,18.50
2022-09-14T14:54:56.749Z,20.80
2022-09-14T14:57:25.571Z,18.40
2022-09-14T15:03:42.063Z,21.00
2022-09-14T15:06:15.786Z,22.20
2022-09-14T15:09:10.476Z,21.10
2022-09-14T15:12:07.002Z,21.10
2022-09-14T15:14:34.024Z,21.10
2022-09-14T15:17:02.762Z,21.20
2022-09-14T15:19:29.950Z,22.00
2022-09-14T15:22:01.097Z,21.20
2022-09-14T15:24:29.250Z,21.20
2022-09-14T15:26:56.328Z,21.20
2022-09-14T15:29:23.605Z,21.10
2022-09-14T15:31:50.857Z,21.00
2022-09-14T15:34:18.278Z,21.00
2022-09-14T15:36:52.354Z,21.00
2022-09-14T15:39:33.419Z,21.10
2022-09-14T15:42:00.583Z,21.20
2022-09-14T15:44:27.590Z,21.10
2022-09-14T15:46:55.235Z,21.10
2022-09-14T15:49:23.725Z,21.20
2022-09-14T15:51:51.952Z,21.10
2022-09-14T15:54:19.736Z,21.00
2022-09-14T15:56:50.825Z,21.10
2022-09-14T15:59:18.224Z,21.10
2022-09-14T16:01:45.137Z,22.90
2022-09-14T16:04:12.549Z,22.20
2022-09-14T16:06:39.853Z,20.90
2022-09-14T16:09:08.301Z,20.90
2022-09-14T16:11:35.660Z,20.80
2022-09-14T16:14:02.725Z,20.70
2022-09-14T16:16:29.709Z,20.60
2022-09-14T16:18:57.422Z,20.40
2022-09-14T16:21:25.981Z,20.30
2022-09-14T16:23:59.453Z,20.40
2022-09-14T16:26:29.759Z,20.30
2022-09-14T16:28:57.009Z,20.20
2022-09-14T16:31:31.302Z,20.10
2022-09-14T16:33:59.889Z,20.10
2022-09-14T16:36:29.571Z,20.10
2022-09-14T16:38:57.949Z,20.00
2022-09-14T16:41:25.028Z,20.00
2022-09-14T16:43:56.189Z,20.00
2022-09-14T16:46:23.404Z,19.90
2022-09-14T16:48:50.688Z,19.70
2022-09-14T16:51:19.391Z,19.80
2022-09-14T16:53:47.050Z,19.70
2022-09-14T16:56:24.047Z,19.70
2022-09-14T16:58:52.154Z,19.50
2022-09-14T17:01:21.647Z,19.60
2022-09-14T17:03:52.132Z,19.60
2022-09-14T17:06:20.852Z,19.40
2022-09-14T17:08:48.251Z,19.40
2022-09-14T17:11:15.943Z,19.30
2022-09-14T17:13:43.699Z,19.30
2022-09-14T17:16:12.976Z,19.20
2022-09-14T17:18:41.369Z,19.30
2022-09-14T17:21:13.187Z,19.20
2022-09-14T17:23:40.559Z,19.00
2022-09-14T17:26:09.220Z,19.10
2022-09-14T17:29:02.184Z,19.90
2022-09-14T17:31:31.940Z,18.90
2022-09-14T17:34:00.497Z,18.60
2022-09-14T17:36:27.766Z,17.50
2022-09-14T17:38:56.693Z,18.80
2022-09-14T17:41:24.068Z,18.80
2022-09-14T17:44:12.653Z,16.80
2022-09-14T17:46:48.173Z,18.80
2022-09-14T17:49:18.465Z,18.70
2022-09-14T17:51:45.593Z,18.70
2022-09-14T17:54:12.922Z,18.70
2022-09-14T17:56:39.986Z,18.70
2022-09-14T17:59:14.539Z,18.60
2022-09-14T18:01:41.783Z,18.70
2022-09-14T18:19:03.316Z,18.40
2022-09-14T18:21:30.523Z,18.40
2022-09-14T18:23:57.855Z,18.30
2022-09-14T18:26:26.530Z,18.10
2022-09-14T18:28:56.234Z,16.90
2022-09-14T18:31:27.261Z,18.40
2022-09-14T18:33:59.580Z,18.40
2022-09-14T18:36:29.078Z,18.30
2022-09-14T18:39:42.073Z,18.40
2022-09-14T18:47:15.385Z,18.20
2022-09-14T18:49:42.914Z,18.20
2022-09-14T18:55:18.278Z,18.20
2022-09-14T18:58:13.443Z,18.20
2022-09-14T19:00:47.485Z,18.10
2022-09-14T19:03:18.676Z,18.20
2022-09-14T19:05:51.083Z,18.00
2022-09-14T19:08:49.533Z,17.40
2022-09-14T19:14:30.686Z,18.00
2022-09-14T19:17:01.764Z,18.00
2022-09-14T19:19:57.877Z,17.90
2022-09-14T19:22:25.669Z,18.00
2022-09-14T19:24:54.605Z,17.90
2022-09-14T19:27:22.273Z,16.30
2022-09-14T19:29:53.723Z,17.10
2022-09-14T19:32:25.346Z,15.40
2022-09-14T19:34:52.817Z,17.20
2022-09-14T19:37:24.558Z,17.90
2022-09-14T19:39:53.821Z,18.00
2022-09-14T19:42:36.595Z,17.90
2022-09-14T19:45:04.681Z,16.60
2022-09-14T19:47:31.911Z,17.80
2022-09-14T19:49:59.225Z,17.70
2022-09-14T19:52:26.755Z,17.70
2022-09-14T19:54:54.726Z,16.50
2022-09-14T19:58:25.212Z,17.80
2022-09-14T20:00:59.754Z,17.90
2022-09-14T20:03:35.651Z,17.70
2022-09-14T20:06:11.551Z,17.60
2022-09-14T20:08:39.427Z,16.50
2022-09-14T20:14:44.724Z,18.70
2022-09-14T20:17:16.290Z,19.70
2022-09-14T20:19:45.911Z,17.70
2022-09-14T20:22:17.104Z,17.70
2022-09-14T20:24:44.572Z,17.70
2022-09-14T20:27:20.897Z,17.80
2022-09-14T20:29:48.837Z,16.80
2022-09-14T20:32:20.372Z,18.10
2022-09-14T20:34:48.397Z,16.70
2022-09-14T20:37:19.608Z,17.60
2022-09-14T20:39:47.897Z,17.40
2022-09-14T20:42:15.187Z,17.40
2022-09-14T20:44:42.308Z,17.40
2022-09-14T20:47:09.713Z,17.30
2022-09-14T20:49:36.907Z,17.30
2022-09-14T20:52:03.961Z,17.30
2022-09-14T20:54:31.363Z,17.30
2022-09-14T20:57:03.518Z,17.30
2022-09-14T20:59:31.435Z,17.20
2022-09-14T21:02:02.317Z,17.20
2022-09-14T21:04:31.751Z,17.50
2022-09-14T21:06:58.929Z,17.00
2022-09-14T21:09:27.766Z,17.10
2022-09-14T21:11:55.788Z,17.10
2022-09-14T21:14:23.306Z,17.10
2022-09-14T21:16:52.166Z,17.00
2022-09-14T21:19:20.602Z,19.40
2022-09-14T21:21:48.141Z,17.00
2022-09-14T21:24:15.185Z,17.50
2022-09-14T21:26:43.012Z,16.90
2022-09-14T21:29:14.249Z,17.50
2022-09-14T21:31:41.199Z,16.90
2022-09-14T21:34:10.172Z,16.90
2022-09-14T21:36:39.174Z,16.80
2022-09-14T21:39:11.474Z,16.80
2022-09-14T21:41:38.646Z,16.80
2022-09-14T21:44:05.670Z,17.60
2022-09-14T21:46:32.671Z,16.70
2022-09-14T21:48:59.612Z,16.70
2022-09-14T21:51:28.298Z,16.70
2022-09-14T21:54:00.557Z,16.70
2022-09-14T21:56:29.108Z,16.60
2022-09-14T21:59:00.451Z,17.90
2022-09-14T22:01:27.590Z,17.70
2022-09-14T22:03:54.928Z,17.50
2022-09-14T22:06:23.922Z,16.60
2022-09-14T22:08:51.874Z,16.60
2022-09-14T22:11:23.230Z,16.60
2022-09-14T22:13:54.749Z,16.60
2022-09-14T22:16:22.548Z,16.60
2022-09-14T22:18:51.393Z,16.60
2022-09-14T22:21:18.658Z,17.00
2022-09-14T22:23:49.992Z,16.60
2022-09-14T22:26:16.895Z,16.60
2022-09-14T22:28:44.374Z,16.60
2022-09-14T22:31:11.214Z,17.90
2022-09-14T22:33:38.080Z,17.60
2022-09-14T22:36:05.442Z,17.80
2022-09-14T22:38:34.219Z,15.50
2022-09-14T22:41:06.319Z,16.70
2022-09-14T22:43:34.154Z,16.70
2022-09-14T22:46:01.622Z,16.70
2022-09-14T22:48:28.488Z,16.70
2022-09-14T22:50:56.414Z,16.70
2022-09-14T22:53:23.787Z,18.20
2022-09-14T22:55:50.742Z,17.10
2022-09-14T22:58:19.011Z,16.80
2022-09-14T23:00:46.559Z,16.80
2022-09-14T23:03:13.944Z,17.60
2022-09-14T23:06:06.337Z,17.60
2022-09-14T23:08:35.240Z,16.80
2022-09-14T23:11:06.431Z,16.80
2022-09-14T23:13:36.521Z,16.80
2022-09-14T23:16:10.126Z,18.50
2022-09-14T23:18:36.957Z,16.80
2022-09-14T23:21:04.018Z,16.80
2022-09-14T23:23:31.171Z,16.70
2022-09-14T23:26:05.186Z,19.10
2022-09-14T23:28:32.313Z,18.80
2022-09-14T23:30:59.773Z,17.00
2022-09-14T23:33:27.544Z,17.80
2022-09-14T23:35:54.344Z,16.80
2022-09-14T23:38:21.127Z,16.80
2022-09-14T23:40:49.653Z,17.80
2022-09-14T23:43:19.628Z,16.80
2022-09-14T23:45:46.956Z,16.70
2022-09-14T23:48:13.988Z,17.70
2022-09-14T23:50:40.860Z,17.10
2022-09-14T23:53:07.670Z,17.00
2022-09-14T23:55:34.489Z,17.10
2022-09-14T23:58:01.265Z,17.80
